Time;durP1;ratioP1;P1;durP2;ratioP2;P2;SDS_P1;SDS_P2;PMS_P1;PMS_P2;Temp;Humidity;BMP_temperature;BMP_pressure;BME280_temperature;BME280_humidity;BME280_pressure;Samples;Min_cycle;Max_cycle;Signal;HPM_P1;HPM_P2
2023/11/14 00:01:49;;;;;;;0.30;0.30;;;;;;;;;;4878145;29;20173;-87
2023/11/14 00:04:15;;;;;;;0.20;0.20;;;;;;;;;;4878457;29;20032;-88
2023/11/14 00:06:41;;;;;;;0.20;0.20;;;;;;;;;;4878616;29;20032;-88
2023/11/14 00:09:09;;;;;;;0.40;0.35;;;;;;;;;;4877515;29;20096;-88
2023/11/14 00:11:36;;;;;;;;;;;17.70;92.30;;;;;;4874558;29;20030;-88
2023/11/14 00:14:03;;;;;;;0.10;0.10;;;17.50;92.70;;;;;;4860496;29;19907;-87
2023/11/14 00:16:29;;;;;;;0.50;0.30;;;;;;;;;;4861705;29;20040;-88
2023/11/14 00:18:55;;;;;;;0.20;0.20;;;;;;;;;;4861009;29;20029;-87
2023/11/14 00:21:21;;;;;;;0.10;0.10;;;;;;;;;;4860292;29;20037;-87
2023/11/14 00:23:48;;;;;;;0.30;0.30;;;;;;;;;;4860749;29;20057;-86
2023/11/14 00:26:14;;;;;;;0.20;0.20;;;;;;;;;;4861524;29;20029;-88
2023/11/14 00:28:41;;;;;;;0.20;0.20;;;;;;;;;;4878094;29;20037;-87
2023/11/14 00:31:07;;;;;;;0.20;0.20;;;;;;;;;;4877474;29;20472;-87
2023/11/14 00:33:34;;;;;;;0.20;0.20;;;;;;;;;;4877712;29;20073;-89
2023/11/14 00:36:00;;;;;;;0.13;0.13;;;;;;;;;;4877354;29;20552;-87
2023/11/14 00:38:26;;;;;;;0.30;0.30;;;;;;;;;;4877504;29;20033;-88
2023/11/14 00:40:52;;;;;;;0.20;0.20;;;;;;;;;;4877679;29;20425;-87
2023/11/14 00:43:19;;;;;;;0.45;0.20;;;;;;;;;;4877095;29;20041;-87
2023/11/14 00:45:45;;;;;;;1.10;0.22;;;17.30;94.00;;;;;;4868219;29;20084;-87
2023/11/14 00:48:11;;;;;;;0.10;0.10;;;;;;;;;;4860061;29;20029;-87
2023/11/14 00:50:37;;;;;;;0.20;0.20;;;;;;;;;;4876998;29;20439;-88
2023/11/14 00:53:03;;;;;;;0.20;0.20;;;;;;;;;;4877158;29;20145;-87
2023/11/14 00:55:29;;;;;;;0.10;0.10;;;;;;;;;;4877672;29;20139;-88
2023/11/14 00:57:56;;;;;;;0.20;0.20;;;;;;;;;;4860037;29;20452;-87
2023/11/14 01:00:22;;;;;;;0.20;0.20;;;;;;;;;;4877523;29;20051;-88
2023/11/14 01:02:48;;;;;;;0.20;0.20;;;;;;;;;;4877601;29;20815;-87
2023/11/14 01:05:14;;;;;;;0.20;0.20;;;;;;;;;;4877153;29;20391;-87
2023/11/14 01:07:40;;;;;;;0.20;0.20;;;17.40;94.00;;;;;;4876787;29;20029;-86
2023/11/14 01:10:06;;;;;;;0.15;0.15;;;17.20;99.90;;;;;;4877017;29;20037;-87
2023/11/14 01:12:32;;;;;;;0.28;0.20;;;;;;;;;;4876765;29;20069;-87
2023/11/14 01:14:59;;;;;;;0.20;0.20;;;;;;;;;;4876821;29;20037;-88
2023/11/14 01:17:25;;;;;;;0.35;0.35;;;;;;;;;;4877119;29;20495;-87
2023/11/14 01:19:51;;;;;;;0.20;0.20;;;;;;;;;;4876558;29;20034;-87
2023/11/14 01:22:20;;;;;;;0.20;0.20;;;;;;;;;;4860311;29;20040;-88
2023/11/14 01:24:46;;;;;;;0.20;0.20;;;;;;;;;;4876282;29;20120;-87
2023/11/14 01:27:12;;;;;;;0.20;0.20;;;;;;;;;;4876404;29;20522;-87
2023/11/14 01:29:38;;;;;;;1.40;0.30;;;;;;;;;;4867435;29;20086;-87
2023/11/14 01:32:06;;;;;;;3.13;0.30;;;17.40;92.90;;;;;;4876868;29;20033;-88
2023/11/14 01:34:32;;;;;;;0.35;0.20;;;;;;;;;;4876137;29;20025;-88
2023/11/14 01:36:58;;;;;;;0.63;0.20;;;;;;;;;;4876785;29;20026;-87
2023/11/14 01:39:25;;;;;;;0.30;0.20;;;;;;;;;;4875840;29;20552;-87
2023/11/14 01:41:51;;;;;;;0.20;0.20;;;;;;;;;;4874641;29;20041;-87
2023/11/14 01:44:17;;;;;;;0.20;0.20;;;;;;;;;;4876422;29;20029;-88
2023/11/14 01:46:43;;;;;;;0.20;0.20;;;;;;;;;;4857162;29;20084;-87
2023/11/14 01:49:10;;;;;;;0.10;0.10;;;;;;;;;;4870701;29;20031;-87
2023/11/14 01:51:36;;;;;;;0.20;0.20;;;;;;;;;;4860197;29;20025;-87
2023/11/14 01:54:02;;;;;;;0.20;0.20;;;;;;;;;;4864630;29;20030;-87
2023/11/14 01:56:29;;;;;;;0.20;0.20;;;17.50;92.60;;;;;;4875500;29;20033;-87
2023/11/14 01:58:55;;;;;;;0.20;0.20;;;;;;;;;;4870954;29;20202;-88
2023/11/14 02:01:22;;;;;;;0.20;0.20;;;17.30;93.80;;;;;;4859716;29;20041;-87
2023/11/14 02:03:48;;;;;;;0.20;0.20;;;;;;;;;;4875846;29;20518;-87
2023/11/14 02:06:14;;;;;;;0.20;0.20;;;;;;;;;;4876931;29;20132;-87
2023/11/14 02:08:41;;;;;;;0.20;0.20;;;;;;;;;;4876300;29;20033;-87
2023/11/14 02:11:07;;;;;;;0.68;0.20;;;;;;;;;;4876061;29;20065;-87
2023/11/14 02:13:33;;;;;;;1.10;0.40;;;;;;;;;;4875866;29;20025;-87
2023/11/14 02:15:59;;;;;;;0.20;0.20;;;;;;;;;;4859307;29;20579;-88
2023/11/14 02:18:25;;;;;;;1.75;0.20;;;;;;;;;;4876204;29;20102;-87
2023/11/14 02:20:51;;;;;;;0.20;0.20;;;;;;;;;;4876271;29;20029;-88
2023/11/14 02:23:18;;;;;;;0.28;0.28;;;17.30;93.90;;;;;;4876184;29;20073;-87
2023/11/14 02:25:45;;;;;;;0.20;0.20;;;17.30;94.00;;;;;;4876370;29;20367;-87
2023/11/14 02:28:10;;;;;;;0.20;0.20;;;;;;;;;;4876210;29;20294;-87
2023/11/14 02:30:37;;;;;;;0.20;0.20;;;17.30;94.00;;;;;;4875519;29;20419;-88
2023/11/14 02:33:07;;;;;;;0.75;0.40;;;17.30;99.90;;;;;;4875815;29;20040;-87
2023/11/14 02:35:33;;;;;;;0.47;0.20;;;;;;;;;;4876100;29;20530;-87
2023/11/14 02:37:59;;;;;;;0.10;0.10;;;;;;;;;;4876263;29;20060;-88
2023/11/14 02:40:26;;;;;;;0.30;0.25;;;;;;;;;;4875982;29;20479;-87
2023/11/14 02:42:53;;;;;;;0.30;0.20;;;;;;;;;;4875740;29;20089;-86
2023/11/14 02:45:19;;;;;;;0.55;0.20;;;;;;;;;;4878711;29;20443;-88
2023/11/14 02:47:45;;;;;;;0.20;0.20;;;;;;;;;;4879608;29;20041;-87
2023/11/14 02:50:20;;;;;;;0.40;0.15;;;17.40;93.50;;;;;;4863154;29;20088;-88
2023/11/14 02:52:47;;;;;;;0.10;0.10;;;;;;;;;;4862947;29;20033;-87
2023/11/14 02:55:13;;;;;;;0.20;0.20;;;;;;;;;;4879736;29;20037;-87
2023/11/14 02:57:39;;;;;;;0.57;0.28;;;;;;;;;;4879757;29;20486;-88
2023/11/14 03:00:05;;;;;;;0.10;0.10;;;17.20;95.80;;;;;;4879081;29;20029;-87
2023/11/14 03:02:32;;;;;;;0.20;0.20;;;;;;;;;;4861675;29;20037;-87
2023/11/14 03:04:57;;;;;;;0.20;0.20;;;;;;;;;;4863130;29;20036;-87
2023/11/14 03:07:23;;;;;;;0.50;0.35;;;;;;;;;;4878995;29;20033;-87
2023/11/14 03:09:49;;;;;;;0.10;0.10;;;;;;;;;;4875139;29;20497;-88
2023/11/14 03:12:16;;;;;;;0.20;0.20;;;17.20;94.50;;;;;;4878812;29;20029;-88
2023/11/14 03:14:42;;;;;;;0.47;0.20;;;;;;;;;;4862358;29;20028;-88
2023/11/14 03:17:09;;;;;;;0.17;0.17;;;;;;;;;;4879058;29;20373;-87
2023/11/14 03:19:39;;;;;;;0.17;0.17;;;17.20;94.30;;;;;;4879601;29;20036;-88
2023/11/14 03:22:05;;;;;;;0.60;0.30;;;;;;;;;;4879226;29;20053;-88
2023/11/14 03:24:31;;;;;;;0.20;0.20;;;;;;;;;;4878919;29;20108;-87
2023/11/14 03:26:57;;;;;;;0.85;0.20;;;;;;;;;;4879037;29;20554;-87
2023/11/14 03:29:23;;;;;;;0.25;0.20;;;;;;;;;;4878718;29;20029;-87
2023/11/14 03:31:49;;;;;;;0.20;0.20;;;;;;;;;;4879158;29;20097;-88
2023/11/14 03:34:15;;;;;;;0.35;0.20;;;;;;;;;;4878959;29;20108;-88
2023/11/14 03:36:41;;;;;;;0.28;0.28;;;;;;;;;;4878797;29;20033;-88
2023/11/14 03:39:07;;;;;;;0.20;0.20;;;;;;;;;;4878663;29;20033;-87
2023/11/14 03:41:33;;;;;;;0.30;0.30;;;;;;;;;;4862141;29;20418;-87
2023/11/14 03:43:59;;;;;;;0.88;0.40;;;;;;;;;;4878924;29;20037;-87
2023/11/14 03:46:25;;;;;;;0.30;0.30;;;;;;;;;;4876797;29;20101;-87
2023/11/14 03:48:51;;;;;;;0.20;0.20;;;;;;;;;;4878161;29;20112;-87
2023/11/14 03:51:17;;;;;;;0.20;0.20;;;;;;;;;;4878740;29;20045;-87
2023/11/14 03:53:44;;;;;;;0.20;0.20;;;;;;;;;;4861831;29;20072;-88
2023/11/14 03:56:10;;;;;;;0.30;0.30;;;;;;;;;;4877321;29;20032;-87
2023/11/14 03:58:38;;;;;;;0.35;0.20;;;17.00;99.90;;;;;;4876676;29;20369;-87
2023/11/14 04:01:04;;;;;;;0.40;0.20;;;;;;;;;;4877877;29;20049;-88
2023/11/14 04:03:30;;;;;;;0.40;0.30;;;;;;;;;;4877776;29;20048;-88
2023/11/14 04:05:56;;;;;;;0.22;0.20;;;;;;;;;;4878000;29;20124;-88
2023/11/14 04:08:22;;;;;;;0.20;0.20;;;;;;;;;;4878917;29;20040;-87
2023/11/14 04:10:49;;;;;;;0.32;0.32;;;;;;;;;;4877668;29;20237;-87
2023/11/14 04:13:15;;;;;;;0.60;0.30;;;;;;;;;;4877513;29;20065;-88
2023/11/14 04:15:41;;;;;;;1.38;0.30;;;;;;;;;;4877790;29;20089;-87
2023/11/14 04:18:07;;;;;;;1.15;0.32;;;;;;;;;;4877977;29;20037;-88
2023/11/14 04:20:33;;;;;;;0.20;0.20;;;;;;;;;;4878070;29;20029;-87
2023/11/14 04:22:59;;;;;;;0.20;0.20;;;;;;;;;;4878032;29;20037;-88
2023/11/14 04:25:25;;;;;;;3.28;0.52;;;;;;;;;;4877692;29;20399;-87
2023/11/14 04:27:51;;;;;;;0.47;0.28;;;;;;;;;;4877062;29;20037;-88
2023/11/14 04:30:17;;;;;;;0.55;0.28;;;;;;;;;;4878396;29;20041;-88
2023/11/14 04:32:43;;;;;;;1.65;0.35;;;;;;;;;;4877532;29;20041;-87
2023/11/14 04:35:09;;;;;;;0.57;0.20;;;16.50;95.30;;;;;;4877704;29;20040;-88
2023/11/14 04:37:35;;;;;;;0.30;0.25;;;;;;;;;;4877627;29;20041;-87
2023/11/14 04:40:01;;;;;;;0.70;0.20;;;;;;;;;;4872859;29;20070;-87
2023/11/14 04:42:27;;;;;;;0.20;0.20;;;;;;;;;;4870147;29;20053;-87
2023/11/14 04:44:53;;;;;;;0.80;0.30;;;;;;;;;;4877632;29;20033;-88
2023/11/14 04:47:19;;;;;;;0.20;0.20;;;;;;;;;;4877433;29;20372;-88
2023/11/14 04:49:45;;;;;;;0.68;0.60;;;;;;;;;;4876908;29;20052;-87
2023/11/14 04:52:11;;;;;;;0.28;0.28;;;;;;;;;;4877314;29;20503;-87
2023/11/14 04:54:37;;;;;;;0.32;0.28;;;;;;;;;;4877595;29;20029;-87
2023/11/14 04:57:03;;;;;;;0.35;0.30;;;;;;;;;;4860597;29;20037;-88
2023/11/14 04:59:29;;;;;;;0.50;0.40;;;;;;;;;;4876836;29;20121;-88
2023/11/14 05:01:55;;;;;;;0.75;0.20;;;;;;;;;;4877307;29;20049;-87
2023/11/14 05:04:21;;;;;;;0.93;0.40;;;;;;;;;;4859963;29;20017;-87
2023/11/14 05:06:47;;;;;;;0.40;0.40;;;;;;;;;;4876128;29;20553;-89
2023/11/14 05:09:16;;;;;;;3.33;0.90;;;;;;;;;;4877001;29;20081;-87
2023/11/14 05:11:42;;;;;;;1.73;0.60;;;;;;;;;;4876335;29;20029;-88
2023/11/14 05:14:08;;;;;;;0.75;0.40;;;16.50;99.90;;;;;;4876439;29;20120;-88
2023/11/14 05:16:40;;;;;;;0.52;0.38;;;16.10;99.90;;;;;;4876964;29;20115;-88
2023/11/14 05:19:07;;;;;;;4.32;0.60;;;;;;;;;;4876976;29;20108;-88
2023/11/14 05:21:34;;;;;;;0.30;0.30;;;;;;;;;;4859981;29;20033;-88
2023/11/14 05:24:00;;;;;;;1.48;0.50;;;;;;;;;;4871189;29;20060;-88
2023/11/14 05:26:25;;;;;;;0.30;0.30;;;;;;;;;;4870283;29;20388;-89
2023/11/14 05:28:51;;;;;;;0.30;0.30;;;;;;;;;;4877141;29;20044;-89
2023/11/14 05:31:17;;;;;;;0.30;0.30;;;;;;;;;;4859907;29;20582;-87
2023/11/14 05:33:44;;;;;;;0.28;0.28;;;;;;;;;;4859983;29;20025;-87
2023/11/14 05:36:11;;;;;;;0.25;0.25;;;;;;;;;;4860167;29;20025;-88
2023/11/14 05:38:37;;;;;;;0.30;0.30;;;;;;;;;;4860073;29;20025;-89
2023/11/14 05:41:03;;;;;;;0.25;0.25;;;;;;;;;;4859905;29;20033;-89
2023/11/14 05:43:29;;;;;;;2.70;0.35;;;;;;;;;;4859741;29;20029;-88
2023/11/14 05:45:56;;;;;;;0.20;0.20;;;;;;;;;;4876810;29;20044;-87
2023/11/14 05:48:22;;;;;;;0.20;0.20;;;15.40;99.90;;;;;;4876269;29;20277;-88
2023/11/14 05:50:48;;;;;;;0.28;0.28;;;;;;;;;;4876484;29;20037;-88
2023/11/14 05:53:15;;;;;;;0.30;0.30;;;;;;;;;;4877061;29;20033;-89
2023/11/14 05:55:41;;;;;;;0.20;0.20;;;;;;;;;;4873975;29;20029;-89
2023/11/14 05:58:07;;;;;;;0.40;0.30;;;;;;;;;;4876001;29;20458;-88
2023/11/14 06:00:33;;;;;;;1.98;0.38;;;;;;;;;;4875801;29;20057;-88
2023/11/14 06:02:59;;;;;;;0.30;0.30;;;;;;;;;;4876320;29;20049;-89
2023/11/14 06:05:25;;;;;;;0.30;0.30;;;;;;;;;;4870561;29;20057;-88
2023/11/14 06:07:51;;;;;;;0.20;0.20;;;;;;;;;;4876220;29;20085;-87
2023/11/14 06:10:18;;;;;;;0.20;0.20;;;;;;;;;;4876163;29;20391;-90
2023/11/14 06:12:44;;;;;;;3.55;0.40;;;;;;;;;;4876360;29;20033;-88
2023/11/14 06:15:10;;;;;;;1.08;0.30;;;19.10;99.90;;;;;;4876188;29;20033;-89
2023/11/14 06:17:36;;;;;;;0.20;0.20;;;;;;;;;;4848661;29;20105;-88
2023/11/14 06:20:07;;;;;;;6.47;0.38;;;14.60;99.90;;;;;;4849219;29;20488;-87
2023/11/14 06:22:33;;;;;;;0.68;0.43;;;;;;;;;;4871314;29;20120;-88
2023/11/14 06:25:00;;;;;;;0.20;0.20;;;14.50;99.90;;;;;;4859857;29;20446;-89
2023/11/14 06:27:26;;;;;;;0.32;0.30;;;;;;;;;;4875106;29;20064;-88
2023/11/14 06:29:52;;;;;;;0.30;0.30;;;;;;;;;;4868860;29;20079;-89
2023/11/14 06:32:18;;;;;;;0.30;0.30;;;;;;;;;;4874698;29;20037;-89
2023/11/14 06:34:44;;;;;;;0.20;0.20;;;;;;;;;;4874379;29;20089;-89
2023/11/14 06:37:10;;;;;;;0.30;0.30;;;;;;;;;;4872744;29;20071;-88
2023/11/14 06:39:38;;;;;;;0.30;0.30;;;14.50;99.90;;;;;;4874508;29;20025;-89
2023/11/14 06:42:07;;;;;;;0.32;0.32;;;;;;;;;;4874353;29;20447;-88
2023/11/14 06:44:33;;;;;;;0.30;0.30;;;;;;;;;;4871100;29;20097;-87
2023/11/14 06:46:59;;;;;;;0.32;0.32;;;;;;;;;;4857475;29;20268;-88
2023/11/14 06:49:25;;;;;;;0.30;0.30;;;;;;;;;;4872948;29;20093;-88
2023/11/14 06:51:51;;;;;;;0.30;0.30;;;;;;;;;;4856517;29;20024;-89
2023/11/14 06:54:17;;;;;;;2.05;0.40;;;;;;;;;;4874799;29;20120;-88
2023/11/14 06:56:43;;;;;;;0.40;0.40;;;;;;;;;;4874235;29;20534;-88
2023/11/14 06:59:10;;;;;;;0.30;0.30;;;;;;;;;;4876395;29;20033;-92
2023/11/14 07:01:36;;;;;;;0.30;0.30;;;;;;;;;;4876281;29;20434;-86
2023/11/14 07:04:02;;;;;;;0.30;0.30;;;;;;;;;;4873765;29;20041;-84
2023/11/14 07:06:28;;;;;;;0.20;0.20;;;;;;;;;;4856250;29;20029;-84
2023/11/14 07:08:55;;;;;;;0.20;0.20;;;;;;;;;;4872978;29;20041;-84
2023/11/14 07:11:21;;;;;;;0.52;0.40;;;;;;;;;;4871194;29;20482;-84
2023/11/14 07:13:48;;;;;;;7.20;0.50;;;;;;;;;;4852665;29;20045;-84
2023/11/14 07:16:14;;;;;;;0.82;0.50;;;;;;;;;;4873109;29;20108;-84
2023/11/14 07:18:40;;;;;;;6.95;0.43;;;;;;;;;;4873630;29;20119;-84
2023/11/14 07:21:06;;;;;;;0.43;0.43;;;;;;;;;;4872664;29;20503;-84
2023/11/14 07:23:32;;;;;;;0.52;0.30;;;;;;;;;;4873461;29;20142;-84
2023/11/14 07:25:58;;;;;;;1.38;0.55;;;14.90;99.90;;;;;;4877437;29;20102;-92
2023/11/14 07:28:24;;;;;;;0.30;0.30;;;15.10;99.90;;;;;;4895893;29;20091;-92
2023/11/14 07:30:51;;;;;;;0.30;0.30;;;;;;;;;;4855477;29;20057;-92
2023/11/14 07:33:17;;;;;;;0.40;0.40;;;;;;;;;;4884905;29;20060;-89
2023/11/14 07:35:43;;;;;;;0.30;0.30;;;14.90;99.90;;;;;;4889145;29;20025;-90
2023/11/14 07:38:09;;;;;;;0.30;0.30;;;;;;;;;;4871311;29;20025;-88
2023/11/14 07:40:34;;;;;;;0.50;0.47;;;15.00;99.90;;;;;;4886725;29;20081;-89
2023/11/14 07:43:03;;;;;;;1.83;0.32;;;14.80;99.90;;;;;;4872201;29;20060;-90
2023/11/14 07:45:29;;;;;;;0.38;0.38;;;;;;;;;;4890105;29;20056;-92
2023/11/14 07:47:55;;;;;;;0.25;0.25;;;;;;;;;;4888990;29;20040;-94
2023/11/14 07:50:22;;;;;;;0.25;0.25;;;;;;;;;;4879329;29;20483;-93
2023/11/14 07:52:48;;;;;;;3.30;0.63;;;;;;;;;;4888419;29;20036;-93
2023/11/14 07:55:16;;;;;;;9.43;0.70;;;14.90;99.90;;;;;;4891458;29;20033;-92
2023/11/14 07:57:42;;;;;;;1.17;0.57;;;15.00;99.90;;;;;;4891053;29;20066;-93
2023/11/14 08:00:11;;;;;;;10.73;0.68;;;15.60;99.90;;;;;;4889392;29;20021;-93
2023/11/14 08:02:37;;;;;;;1.02;0.60;;;;;;;;;;4886729;29;20033;-93
2023/11/14 08:05:03;;;;;;;0.30;0.30;;;15.30;99.90;;;;;;4888700;29;20116;-93
2023/11/14 08:07:29;;;;;;;1.20;0.43;;;;;;;;;;4887834;29;20048;-93
2023/11/14 08:09:55;;;;;;;4.13;0.40;;;;;;;;;;4888280;29;20045;-93
2023/11/14 08:12:21;;;;;;;2.50;0.30;;;;;;;;;;4883905;29;20029;-93
2023/11/14 08:14:49;;;;;;;0.30;0.30;;;;;;;;;;4876541;29;20033;-92
2023/11/14 08:17:14;;;;;;;;;;;14.90;99.90;;;;;;4865002;29;20029;-93
2023/11/14 08:19:40;;;;;;;0.32;0.25;;;;;;;;;;4862207;29;19932;-93
2023/11/14 08:22:08;;;;;;;0.88;0.70;;;;;;;;;;4886295;29;20060;-93
2023/11/14 08:24:34;;;;;;;0.45;0.38;;;;;;;;;;4888102;29;20092;-93
2023/11/14 08:27:01;;;;;;;0.63;0.63;;;;;;;;;;4888454;29;20058;-89
2023/11/14 08:29:27;;;;;;;0.75;0.40;;;;;;;;;;4886367;29;20029;-85
2023/11/14 08:31:53;;;;;;;6.45;0.40;;;;;;;;;;4885205;29;20047;-85
2023/11/14 08:34:19;;;;;;;0.37;0.37;;;;;;;;;;4876722;29;20047;-86
2023/11/14 08:36:45;;;;;;;0.90;0.40;;;;;;;;;;4883606;29;20684;-86
2023/11/14 08:39:13;;;;;;;0.63;0.45;;;;;;;;;;4885089;29;20029;-85
2023/11/14 08:41:40;;;;;;;0.50;0.45;;;;;;;;;;4871584;29;20037;-85
2023/11/14 08:44:07;;;;;;;0.30;0.30;;;;;;;;;;4885069;29;20056;-85
2023/11/14 08:46:33;;;;;;;1.27;1.10;;;;;;;;;;4881551;29;20045;-85
2023/11/14 08:48:59;;;;;;;0.28;0.28;;;;;;;;;;4884123;29;20044;-86
2023/11/14 08:51:26;;;;;;;3.35;0.32;;;;;;;;;;4876628;29;20550;-86
2023/11/14 08:53:52;;;;;;;0.40;0.40;;;;;;;;;;4877110;29;20051;-86
2023/11/14 08:56:18;;;;;;;0.65;0.40;;;;;;;;;;4878902;29;20025;-86
2023/11/14 08:58:45;;;;;;;3.67;0.57;;;;;;;;;;4875926;29;20033;-86
2023/11/14 09:01:14;;;;;;;0.65;0.50;;;15.00;99.90;;;;;;4876238;29;20025;-87
2023/11/14 09:03:41;;;;;;;0.75;0.50;;;14.90;99.90;;;;;;4876297;29;20518;-86
2023/11/14 09:06:07;;;;;;;0.50;0.50;;;;;;;;;;4858277;29;20466;-87
2023/11/14 09:08:34;;;;;;;0.40;0.40;;;;;;;;;;4875203;29;20053;-86
2023/11/14 09:11:00;;;;;;;0.45;0.40;;;15.10;99.90;;;;;;4875938;29;20029;-86
2023/11/14 09:13:26;;;;;;;3.05;0.70;;;;;;;;;;4877898;29;20033;-86
2023/11/14 09:15:52;;;;;;;1.20;0.40;;;;;;;;;;4882322;29;20039;-87
2023/11/14 09:18:18;;;;;;;0.65;0.55;;;;;;;;;;4883242;29;20033;-84
2023/11/14 09:20:44;;;;;;;1.10;0.50;;;;;;;;;;4881742;29;20489;-84
2023/11/14 09:23:10;;;;;;;0.32;0.32;;;;;;;;;;4884168;29;20084;-86
2023/11/14 09:25:35;;;;;;;0.30;0.30;;;15.90;99.90;;;;;;4868348;29;20041;-86
2023/11/14 09:28:01;;;;;;;0.40;0.40;;;15.90;99.90;;;;;;4867070;29;20442;-86
2023/11/14 09:30:27;;;;;;;0.68;0.68;;;16.20;99.90;;;;;;4876430;29;20050;-85
2023/11/14 09:32:53;;;;;;;0.38;0.38;;;;;;;;;;4849328;29;20041;-85
2023/11/14 09:35:19;;;;;;;3.70;0.65;;;;;;;;;;4883479;29;20041;-84
2023/11/14 09:37:45;;;;;;;0.60;0.50;;;;;;;;;;4877140;29;20033;-84
2023/11/14 09:40:19;;;;;;;0.68;0.52;;;17.10;99.90;;;;;;4882372;29;20025;-84
2023/11/14 09:42:45;;;;;;;0.70;0.70;;;;;;;;;;4866149;29;20051;-88
2023/11/14 09:45:12;;;;;;;0.70;0.50;;;;;;;;;;4881857;29;20137;-86
2023/11/14 09:47:38;;;;;;;0.95;0.60;;;;;;;;;;4883046;29;20483;-85
2023/11/14 09:50:04;;;;;;;0.38;0.38;;;18.00;98.10;;;;;;4883728;29;20040;-85
2023/11/14 09:52:31;;;;;;;0.57;0.30;;;18.60;96.70;;;;;;4882994;29;20033;-86
2023/11/14 09:54:57;;;;;;;0.40;0.40;;;19.80;94.80;;;;;;4879514;29;20036;-84
2023/11/14 09:57:23;;;;;;;0.40;0.40;;;;;;;;;;4881028;29;20343;-85
2023/11/14 09:59:49;;;;;;;0.60;0.60;;;;;;;;;;4881004;29;20041;-86
2023/11/14 10:02:15;;;;;;;0.68;0.68;;;;;;;;;;4880494;29;20044;-87
2023/11/14 10:04:44;;;;;;;0.45;0.45;;;30.10;69.90;;;;;;4880204;29;20045;-90
2023/11/14 10:07:21;;;;;;;1.27;0.30;;;31.00;53.30;;;;;;4881425;29;20025;-89
2023/11/14 10:09:47;;;;;;;0.50;0.30;;;28.90;59.80;;;;;;4884944;29;20033;-90
2023/11/14 10:12:31;;;;;;;0.73;0.57;;;27.10;70.40;;;;;;4885987;29;20053;-91
2023/11/14 10:14:57;;;;;;;0.52;0.20;;;;;;;;;;4884861;29;20115;-91
2023/11/14 10:17:26;;;;;;;0.28;0.20;;;25.20;68.70;;;;;;4884515;29;20041;-92
2023/11/14 10:20:07;;;;;;;3.25;0.68;;;24.30;63.40;;;;;;4881025;29;20116;-87
2023/11/14 10:22:34;;;;;;;0.25;0.20;;;22.90;69.60;;;;;;4873972;29;20060;-89
2023/11/14 10:25:00;;;;;;;0.57;0.30;;;22.20;71.90;;;;;;4876789;29;20041;-87
2023/11/14 10:27:33;;;;;;;1.83;0.63;;;21.10;70.90;;;;;;4877777;29;20041;-87
2023/11/14 10:29:59;;;;;;;0.30;0.30;;;20.30;89.80;;;;;;4883349;29;20070;-88
2023/11/14 10:32:25;;;;;;;1.08;0.40;;;;;;;;;;4882433;29;20399;-84
2023/11/14 10:34:52;;;;;;;2.05;0.40;;;19.30;93.00;;;;;;4883722;29;20041;-86
2023/11/14 10:37:33;;;;;;;0.93;0.40;;;19.20;85.10;;;;;;4883744;29;20029;-87
2023/11/14 10:40:06;;;;;;;0.40;0.40;;;18.90;95.80;;;;;;4882266;29;20022;-86
2023/11/14 10:42:33;;;;;;;0.63;0.40;;;;;;;;;;4882980;29;20178;-86
2023/11/14 10:44:59;;;;;;;0.90;0.60;;;;;;;;;;4883696;29;20048;-86
2023/11/14 10:47:37;;;;;;;0.50;0.50;;;18.70;90.80;;;;;;4883978;29;20475;-86
2023/11/14 10:50:04;;;;;;;3.33;0.30;;;19.30;91.00;;;;;;4883889;29;20028;-87
2023/11/14 10:52:32;;;;;;;;;;;18.60;91.10;;;;;;4879524;29;20037;-87
2023/11/14 10:54:58;;;;;;;1.13;0.68;;;;;;;;;;4867623;29;19912;-88
2023/11/14 10:57:24;;;;;;;0.65;0.60;;;;;;;;;;4883282;29;20036;-90
2023/11/14 10:59:51;;;;;;;2.05;0.80;;;18.10;93.90;;;;;;4881213;29;20078;-85
2023/11/14 11:02:18;;;;;;;0.88;0.50;;;;;;;;;;4863460;29;20052;-86
2023/11/14 11:04:44;;;;;;;1.35;0.65;;;19.70;95.80;;;;;;4883456;29;20077;-89
2023/11/14 11:07:10;;;;;;;3.00;0.63;;;19.80;93.70;;;;;;4888266;29;20036;-84
2023/11/14 11:09:36;;;;;;;0.60;0.40;;;;;;;;;;4870581;29;20099;-85
2023/11/14 11:12:03;;;;;;;0.47;0.40;;;19.70;86.40;;;;;;4890838;29;20494;-85
2023/11/14 11:14:31;;;;;;;1.85;0.65;;;;;;;;;;4890196;29;20062;-85
2023/11/14 11:17:00;;;;;;;2.70;1.75;;;;;;;;;;4889536;29;20081;-85
2023/11/14 11:19:28;;;;;;;4.00;0.82;;;20.10;85.30;;;;;;4867417;29;20409;-86
2023/11/14 11:21:57;;;;;;;0.60;0.60;;;20.20;89.30;;;;;;4877157;29;20053;-86
2023/11/14 11:24:25;;;;;;;2.75;1.30;;;;;;;;;;4877512;29;20052;-87
2023/11/14 11:27:09;;;;;;;2.75;1.38;;;19.50;94.70;;;;;;4876724;29;20128;-86
2023/11/14 11:30:10;;;;;;;3.03;1.95;;;19.00;93.50;;;;;;4876672;29;20085;-85
2023/11/14 11:32:40;;;;;;;2.47;0.82;;;18.70;97.40;;;;;;4803817;29;20046;-85
2023/11/14 11:35:20;;;;;;;0.50;0.50;;;18.70;98.30;;;;;;4813409;29;20039;-85
2023/11/14 11:37:53;;;;;;;0.30;0.30;;;18.90;90.20;;;;;;4814208;29;20037;-87
2023/11/14 11:40:25;;;;;;;0.40;0.30;;;19.20;89.80;;;;;;4800759;29;20046;-86
2023/11/14 11:42:51;;;;;;;0.52;0.30;;;;;;;;;;4798833;29;20050;-87
2023/11/14 11:45:33;;;;;;;0.40;0.40;;;19.50;88.20;;;;;;4808203;29;20031;-86
2023/11/14 11:47:59;;;;;;;0.30;0.30;;;;;;;;;;4788274;29;20659;-86
2023/11/14 11:50:32;;;;;;;1.85;0.30;;;19.70;81.20;;;;;;4818496;29;20095;-87
2023/11/14 11:53:05;;;;;;;0.20;0.20;;;19.90;79.80;;;;;;4818782;29;20420;-85
2023/11/14 11:55:35;;;;;;;0.20;0.20;;;20.20;91.10;;;;;;4815547;29;20054;-87
2023/11/14 11:58:08;;;;;;;0.25;0.22;;;19.90;78.30;;;;;;4812257;29;20023;-87
2023/11/14 12:00:35;;;;;;;0.20;0.20;;;19.90;77.30;;;;;;4813117;29;20092;-86
2023/11/14 12:03:02;;;;;;;0.20;0.20;;;;;;;;;;4810191;29;20050;-87
2023/11/14 12:05:29;;;;;;;0.60;0.40;;;19.80;76.90;;;;;;4774470;29;20057;-86
2023/11/14 12:08:04;;;;;;;0.63;0.63;;;19.90;85.10;;;;;;4829610;29;20092;-86
2023/11/14 12:10:31;;;;;;;0.73;0.30;;;;;;;;;;4875056;29;20386;-87
2023/11/14 12:12:57;;;;;;;0.65;0.40;;;19.70;78.70;;;;;;4877435;29;20033;-87
2023/11/14 12:15:28;;;;;;;0.28;0.28;;;19.40;79.60;;;;;;4860164;29;20052;-87
2023/11/14 12:17:56;;;;;;;0.90;0.50;;;19.60;80.60;;;;;;4875690;29;20066;-86
2023/11/14 12:20:24;;;;;;;0.30;0.30;;;19.70;81.20;;;;;;4876355;29;20040;-86
2023/11/14 12:22:52;;;;;;;1.05;0.47;;;19.80;81.40;;;;;;4875771;29;20040;-86
2023/11/14 12:25:20;;;;;;;0.50;0.45;;;19.80;81.60;;;;;;4874969;29;20033;-86
2023/11/14 12:27:49;;;;;;;1.08;0.65;;;19.80;88.70;;;;;;4874766;29;20522;-87
2023/11/14 12:30:16;;;;;;;0.47;0.47;;;;;;;;;;4875545;29;20127;-86
2023/11/14 12:32:42;;;;;;;3.80;0.30;;;;;;;;;;4876246;29;20029;-86
2023/11/14 12:35:09;;;;;;;21.20;5.93;;;;;;;;;;4858937;29;20056;-87
2023/11/14 12:37:35;;;;;;;1.17;0.50;;;;;;;;;;4859023;29;20032;-86
2023/11/14 12:40:10;;;;;;;5.75;2.50;;;20.40;90.80;;;;;;4874821;29;20056;-87
2023/11/14 12:42:39;;;;;;;6.53;1.67;;;20.10;85.50;;;;;;4874602;29;20076;-86
2023/11/14 12:45:08;;;;;;;5.85;1.67;;;19.90;79.80;;;;;;4876546;29;20411;-88
2023/11/14 12:47:36;;;;;;;3.22;1.10;;;19.60;80.40;;;;;;4876904;29;20451;-88
2023/11/14 12:50:02;;;;;;;2.08;1.27;;;19.00;93.00;;;;;;4876720;29;20036;-87
2023/11/14 12:52:30;;;;;;;1.65;1.27;;;18.50;94.80;;;;;;4876963;29;20020;-87
2023/11/14 12:54:56;;;;;;;3.58;1.20;;;;;;;;;;4877378;29;20029;-87
2023/11/14 12:57:22;;;;;;;2.63;1.40;;;;;;;;;;4876038;29;20039;-83
2023/11/14 12:59:49;;;;;;;1.85;1.38;;;17.00;94.40;;;;;;4876242;29;20532;-85
2023/11/14 13:02:15;;;;;;;3.10;2.15;;;;;;;;;;4859291;29;20037;-86
2023/11/14 13:04:41;;;;;;;3.17;1.83;;;;;;;;;;4876286;29;20586;-86
2023/11/14 13:07:07;;;;;;;2.80;1.67;;;16.20;99.80;;;;;;4875262;29;20048;-85
2023/11/14 13:09:33;;;;;;;2.60;1.67;;;;;;;;;;4874893;29;20033;-87
2023/11/14 13:11:59;;;;;;;3.22;1.55;;;;;;;;;;4885155;29;20025;-87
2023/11/14 13:14:25;;;;;;;3.88;2.00;;;;;;;;;;4884566;29;20104;-85
2023/11/14 13:16:51;;;;;;;3.08;1.70;;;;;;;;;;4877556;29;20033;-81
2023/11/14 13:19:17;;;;;;;5.23;1.80;;;;;;;;;;4877927;29;20088;-81
2023/11/14 13:21:43;;;;;;;3.90;1.85;;;;;;;;;;4888638;29;20025;-82
2023/11/14 13:24:09;;;;;;;3.25;1.60;;;15.90;99.90;;;;;;4881318;29;20140;-83
2023/11/14 13:26:38;;;;;;;2.05;1.40;;;;;;;;;;4861154;29;20033;-82
2023/11/14 13:29:04;;;;;;;3.78;2.15;;;;;;;;;;4885382;29;20031;-87
2023/11/14 13:31:30;;;;;;;3.17;1.88;;;;;;;;;;4882943;29;20434;-86
2023/11/14 13:33:56;;;;;;;1.60;1.50;;;;;;;;;;4883775;29;20025;-89
2023/11/14 13:36:25;;;;;;;4.90;1.73;;;;;;;;;;4887259;29;20037;-90
2023/11/14 13:38:51;;;;;;;1.98;1.30;;;;;;;;;;4883916;29;20037;-82
2023/11/14 13:41:17;;;;;;;2.63;1.85;;;;;;;;;;4861042;29;20112;-92
2023/11/14 13:43:43;;;;;;;2.40;1.63;;;;;;;;;;4871561;29;20514;-92
2023/11/14 13:46:10;;;;;;;2.92;1.80;;;;;;;;;;4868148;29;20060;-83
2023/11/14 13:48:36;;;;;;;2.33;1.58;;;;;;;;;;4882352;29;20047;-85
2023/11/14 13:51:02;;;;;;;2.03;1.50;;;;;;;;;;4883307;29;20022;-88
2023/11/14 13:53:28;;;;;;;1.52;0.85;;;;;;;;;;4885854;29;20052;-87
2023/11/14 13:55:55;;;;;;;1.77;1.02;;;;;;;;;;4885025;29;20029;-87
2023/11/14 13:58:24;;;;;;;3.15;1.83;;;;;;;;;;4883665;29;20043;-91
2023/11/14 14:00:50;;;;;;;4.90;2.35;;;;;;;;;;4876252;29;20017;-85
2023/11/14 14:03:18;;;;;;;5.07;2.92;;;;;;;;;;4885849;29;20052;-92
2023/11/14 14:05:43;;;;;;;;;;;15.40;99.90;;;;;;4885124;29;20048;-88
2023/11/14 14:08:09;;;;;;;3.03;1.17;;;;;;;;;;4884937;29;19911;-89